Time;durP1;ratioP1;P1;durP2;ratioP2;P2;SDS_P1;SDS_P2;PMS_P1;PMS_P2;Temp;Humidity;BMP_temperature;BMP_pressure;BME280_temperature;BME280_humidity;BME280_pressure;Samples;Min_cycle;Max_cycle;Signal;HPM_P1;HPM_P2
2021/07/17 00:01:34;;;;;;;59.23;18.53;;;15.10;99.90;;;;;;5093397;28;20294;-76
2021/07/17 00:04:01;;;;;;;56.03;18.77;;;15.20;99.90;;;;;;5092990;28;20231;-76
2021/07/17 00:06:28;;;;;;;59.43;17.73;;;15.20;99.90;;;;;;5093185;28;20206;-76
2021/07/17 00:08:55;;;;;;;46.73;17.90;;;15.20;99.90;;;;;;5092684;28;20223;-76
2021/07/17 00:11:22;;;;;;;50.63;18.27;;;15.20;99.90;;;;;;5093038;28;20286;-76
2021/07/17 00:13:50;;;;;;;48.37;18.13;;;15.10;99.90;;;;;;5092603;28;20570;-75
2021/07/17 00:16:17;;;;;;;54.47;18.37;;;15.20;99.90;;;;;;5092840;28;20195;-76
2021/07/17 00:18:44;;;;;;;58.10;18.33;;;15.20;99.90;;;;;;5092880;28;20202;-76
2021/07/17 00:21:11;;;;;;;58.20;17.90;;;15.20;99.90;;;;;;5092619;28;20558;-76
2021/07/17 00:23:38;;;;;;;59.77;20.07;;;15.20;99.90;;;;;;5092059;28;20690;-76
2021/07/17 00:26:05;;;;;;;54.93;19.53;;;15.30;99.90;;;;;;5092806;28;20302;-75
2021/07/17 00:28:33;;;;;;;62.70;20.47;;;15.20;99.90;;;;;;5092162;28;20218;-75
2021/07/17 00:31:01;;;;;;;51.47;18.53;;;15.30;99.90;;;;;;5092124;28;20667;-76
2021/07/17 00:33:28;;;;;;;61.60;20.30;;;15.20;99.90;;;;;;5092088;28;20743;-76
2021/07/17 00:35:55;;;;;;;55.40;20.00;;;15.20;99.90;;;;;;5092029;28;20199;-76
2021/07/17 00:38:22;;;;;;;56.17;19.33;;;15.30;99.90;;;;;;5092007;28;20285;-76
2021/07/17 00:40:49;;;;;;;53.83;19.90;;;15.20;99.90;;;;;;5092602;28;20226;-75
2021/07/17 00:43:16;;;;;;;66.73;20.73;;;15.20;99.90;;;;;;5091874;28;20205;-75
2021/07/17 00:45:43;;;;;;;58.80;19.73;;;15.20;99.90;;;;;;5092503;28;20605;-76
2021/07/17 00:48:11;;;;;;;57.73;19.77;;;15.10;99.90;;;;;;5092272;28;20198;-76
2021/07/17 00:50:38;;;;;;;73.20;21.20;;;15.20;99.90;;;;;;5091229;28;20732;-75
2021/07/17 00:53:05;;;;;;;65.60;20.97;;;15.20;99.90;;;;;;5092533;28;20207;-76
2021/07/17 00:55:33;;;;;;;59.10;21.37;;;15.20;99.90;;;;;;5092404;28;20194;-76
2021/07/17 00:58:02;;;;;;;64.40;21.13;;;15.20;99.90;;;;;;5092121;28;20206;-76
2021/07/17 01:00:28;;;;;;;58.10;20.80;;;15.10;99.90;;;;;;5092557;28;20205;-76
2021/07/17 01:02:59;;;;;;;54.57;20.53;;;15.10;99.90;;;;;;5092192;28;20660;-75
2021/07/17 01:05:27;;;;;;;58.43;21.13;;;15.00;99.90;;;;;;5092809;28;20218;-76
2021/07/17 01:07:54;;;;;;;68.37;21.17;;;15.00;99.90;;;;;;5092698;28;20203;-75
2021/07/17 01:10:22;;;;;;;53.43;20.43;;;15.00;99.90;;;;;;5092216;28;20229;-76
2021/07/17 01:12:49;;;;;;;65.50;21.17;;;15.00;99.90;;;;;;5092686;28;20202;-76
2021/07/17 01:15:16;;;;;;;63.77;22.23;;;15.00;99.90;;;;;;5092759;28;20206;-76
2021/07/17 01:17:43;;;;;;;59.97;21.60;;;14.90;99.90;;;;;;5092492;28;20202;-76
2021/07/17 01:20:13;;;;;;;59.90;21.10;;;14.90;99.90;;;;;;5092700;28;20205;-75
2021/07/17 01:22:43;;;;;;;61.70;22.13;;;14.90;99.90;;;;;;5093039;28;20194;-76
2021/07/17 01:25:12;;;;;;;57.13;22.50;;;14.90;99.90;;;;;;5092219;28;20202;-76
2021/07/17 01:27:40;;;;;;;75.77;23.57;;;14.90;99.90;;;;;;5092484;28;20211;-75
2021/07/17 01:30:08;;;;;;;71.93;22.73;;;14.90;99.90;;;;;;5092350;28;20219;-75
2021/07/17 01:32:35;;;;;;;67.10;22.87;;;14.90;99.90;;;;;;5092518;28;20204;-76
2021/07/17 01:35:02;;;;;;;57.13;22.30;;;14.90;99.90;;;;;;5092168;28;20209;-76
2021/07/17 01:37:29;;;;;;;77.27;24.40;;;14.90;99.90;;;;;;5092709;28;20199;-76
2021/07/17 01:39:57;;;;;;;57.63;23.10;;;14.70;99.90;;;;;;5091990;28;20675;-76
2021/07/17 01:42:24;;;;;;;60.17;21.70;;;14.70;99.90;;;;;;5092798;28;20199;-75
2021/07/17 01:44:51;;;;;;;62.93;22.70;;;14.80;99.90;;;;;;5092335;28;20199;-76
2021/07/17 01:47:18;;;;;;;64.67;22.50;;;14.80;99.90;;;;;;5092153;28;20664;-76
2021/07/17 01:49:45;;;;;;;69.20;23.13;;;14.90;99.90;;;;;;5096375;28;20312;-76
2021/07/17 01:52:12;;;;;;;65.83;23.00;;;14.90;99.90;;;;;;5096657;28;20215;-76
2021/07/17 01:54:41;;;;;;;69.50;24.73;;;15.00;99.90;;;;;;5096240;28;20199;-75
2021/07/17 01:57:10;;;;;;;79.33;24.00;;;15.10;99.90;;;;;;5096392;28;20202;-76
2021/07/17 01:59:38;;;;;;;62.43;23.37;;;15.30;99.90;;;;;;5096191;28;20199;-76
2021/07/17 02:02:06;;;;;;;61.73;22.10;;;15.40;99.90;;;;;;5096077;28;20209;-76
2021/07/17 02:04:32;;;;;;;62.63;22.20;;;15.50;99.90;;;;;;5096245;28;20195;-76
2021/07/17 02:06:59;;;;;;;59.77;22.40;;;15.50;99.90;;;;;;5096349;28;20203;-75
2021/07/17 02:09:26;;;;;;;55.10;22.30;;;15.50;99.90;;;;;;5095626;28;20594;-76
2021/07/17 02:11:53;;;;;;;58.57;22.33;;;15.70;99.90;;;;;;5095938;28;20226;-75
2021/07/17 02:14:22;;;;;;;59.13;21.70;;;15.60;99.90;;;;;;5095650;28;20293;-75
2021/07/17 02:16:49;;;;;;;59.30;24.10;;;15.70;99.90;;;;;;5096013;28;20510;-75
2021/07/17 02:19:20;;;;;;;62.83;22.70;;;15.80;99.90;;;;;;5095403;28;20631;-76
2021/07/17 02:21:48;;;;;;;64.57;22.97;;;15.90;99.90;;;;;;5095506;28;20618;-76
2021/07/17 02:24:15;;;;;;;49.77;21.47;;;15.90;99.90;;;;;;5096149;28;20229;-76
2021/07/17 02:26:43;;;;;;;59.83;23.03;;;15.90;99.90;;;;;;5095634;28;20209;-76
2021/07/17 02:29:10;;;;;;;65.57;22.37;;;15.90;99.90;;;;;;5095233;28;20250;-76
2021/07/17 02:31:38;;;;;;;48.73;20.60;;;15.80;99.90;;;;;;5094200;28;20203;-76
2021/07/17 02:34:06;;;;;;;60.27;20.93;;;15.90;99.90;;;;;;5095277;28;20731;-75
2021/07/17 02:36:33;;;;;;;48.77;21.23;;;15.80;99.90;;;;;;5095502;28;20306;-76
2021/07/17 02:39:00;;;;;;;52.57;20.77;;;15.80;99.90;;;;;;5094876;28;20199;-75
2021/07/17 02:41:27;;;;;;;52.03;19.30;;;15.80;99.90;;;;;;5095595;28;20203;-76
2021/07/17 02:43:54;;;;;;;53.30;20.20;;;15.80;99.90;;;;;;5095572;28;20296;-75
2021/07/17 02:46:21;;;;;;;46.03;18.30;;;15.80;99.90;;;;;;5081489;28;20210;-76
2021/07/17 02:48:50;;;;;;;51.07;19.27;;;15.90;99.90;;;;;;5094917;28;20234;-75
2021/07/17 02:51:17;;;;;;;54.03;19.17;;;15.90;99.90;;;;;;5094891;28;20195;-75
2021/07/17 02:53:44;;;;;;;44.70;19.30;;;15.90;99.90;;;;;;5095090;28;20203;-75
2021/07/17 02:56:11;;;;;;;50.03;18.80;;;16.00;99.90;;;;;;5095224;28;20207;-76
2021/07/17 02:58:38;;;;;;;48.50;19.13;;;16.00;99.90;;;;;;5095131;28;20668;-75
2021/07/17 03:01:04;;;;;;;56.73;19.33;;;16.00;99.90;;;;;;5093660;28;20203;-75
2021/07/17 03:03:31;;;;;;;47.87;18.57;;;16.00;99.90;;;;;;5094977;28;20202;-75
2021/07/17 03:05:59;;;;;;;42.33;19.20;;;16.00;99.90;;;;;;5094911;28;20214;-76
2021/07/17 03:08:26;;;;;;;42.97;18.53;;;16.00;99.90;;;;;;5094593;28;20198;-76
2021/07/17 03:10:54;;;;;;;54.63;19.03;;;16.00;99.90;;;;;;5094682;28;20222;-75
2021/07/17 03:13:21;;;;;;;44.30;17.80;;;16.00;99.90;;;;;;5094296;28;20203;-76
2021/07/17 03:15:49;;;;;;;40.50;17.47;;;16.00;99.90;;;;;;5094891;28;20290;-76
2021/07/17 03:18:16;;;;;;;47.13;19.10;;;16.10;99.90;;;;;;5094480;28;20202;-75
2021/07/17 03:20:43;;;;;;;42.67;17.57;;;16.10;99.90;;;;;;5094558;28;20229;-76
2021/07/17 03:23:12;;;;;;;42.93;18.40;;;16.10;99.90;;;;;;5094310;28;20209;-76
2021/07/17 03:25:39;;;;;;;37.33;16.47;;;16.10;99.90;;;;;;5094750;28;20209;-75
2021/07/17 03:28:06;;;;;;;41.50;17.73;;;16.00;99.90;;;;;;5094014;28;20215;-76
2021/07/17 03:30:33;;;;;;;42.37;17.77;;;16.00;99.90;;;;;;5094082;28;20565;-75
2021/07/17 03:33:00;;;;;;;43.60;17.23;;;15.90;99.90;;;;;;5094356;28;20203;-75
2021/07/17 03:35:27;;;;;;;46.60;17.43;;;16.00;99.90;;;;;;5094374;28;20201;-75
2021/07/17 03:37:53;;;;;;;42.43;16.93;;;16.10;99.90;;;;;;5094354;28;20203;-75
2021/07/17 03:40:22;;;;;;;52.83;17.47;;;16.10;99.90;;;;;;5093777;28;20289;-75
2021/07/17 03:42:48;;;;;;;48.07;17.90;;;16.00;99.90;;;;;;5094374;28;20298;-75
2021/07/17 03:45:15;;;;;;;39.57;17.57;;;16.00;99.90;;;;;;5094070;28;20199;-76
2021/07/17 03:47:42;;;;;;;42.43;17.30;;;16.00;99.90;;;;;;5093759;28;20578;-76
2021/07/17 03:50:10;;;;;;;45.67;17.13;;;16.00;99.90;;;;;;5093841;28;20226;-75
2021/07/17 03:52:37;;;;;;;45.63;17.00;;;16.00;99.90;;;;;;5093961;28;20207;-75
2021/07/17 03:55:05;;;;;;;36.10;16.23;;;16.00;99.90;;;;;;5093876;28;20209;-76
2021/07/17 03:57:33;;;;;;;42.50;17.53;;;16.10;99.90;;;;;;5093745;28;20206;-75
2021/07/17 04:00:00;;;;;;;36.80;16.30;;;16.10;99.90;;;;;;5093548;28;20222;-75
2021/07/17 04:02:29;;;;;;;49.47;17.30;;;16.20;99.90;;;;;;5094175;28;20206;-75
2021/07/17 04:04:57;;;;;;;48.67;17.10;;;16.20;99.90;;;;;;5093700;28;20248;-75
2021/07/17 04:07:24;;;;;;;38.63;17.17;;;16.30;99.90;;;;;;5093901;28;20222;-75
2021/07/17 04:09:51;;;;;;;46.83;16.60;;;16.30;99.90;;;;;;5093236;28;20223;-75
2021/07/17 04:12:18;;;;;;;33.30;15.67;;;16.30;99.90;;;;;;5093406;28;20214;-75
2021/07/17 04:14:47;;;;;;;38.43;15.90;;;16.40;99.90;;;;;;5093511;28;20307;-75
2021/07/17 04:17:14;;;;;;;35.57;15.97;;;16.50;99.90;;;;;;5093783;28;20209;-75
2021/07/17 04:19:41;;;;;;;40.53;16.43;;;16.50;99.90;;;;;;5092712;28;20548;-76
2021/07/17 04:22:07;;;;;;;31.33;14.43;;;16.50;99.90;;;;;;5093390;28;20203;-75
2021/07/17 04:24:34;;;;;;;37.37;15.77;;;16.50;99.90;;;;;;5093071;28;20577;-76
2021/07/17 04:27:01;;;;;;;38.30;15.27;;;16.60;99.90;;;;;;5093637;28;20290;-75
2021/07/17 04:29:28;;;;;;;36.27;16.37;;;16.60;99.90;;;;;;5093220;28;20214;-75
2021/07/17 04:31:56;;;;;;;43.77;17.00;;;16.60;99.90;;;;;;5093065;28;20206;-75
2021/07/17 04:34:23;;;;;;;41.90;16.50;;;16.60;99.90;;;;;;5092908;28;20298;-75
2021/07/17 04:36:50;;;;;;;28.13;14.90;;;16.60;99.90;;;;;;5092842;28;20252;-75
2021/07/17 04:39:17;;;;;;;33.47;14.63;;;16.40;99.90;;;;;;5092883;28;20203;-75
2021/07/17 04:41:44;;;;;;;32.80;16.13;;;16.50;99.90;;;;;;5093636;28;20203;-75
2021/07/17 04:44:11;;;;;;;36.93;15.77;;;16.40;99.90;;;;;;5092645;28;20294;-75
2021/07/17 04:46:38;;;;;;;39.50;15.93;;;16.30;99.90;;;;;;5093201;28;20213;-75
2021/07/17 04:49:06;;;;;;;38.43;15.50;;;16.20;99.90;;;;;;5092768;28;20202;-76
2021/07/17 04:51:33;;;;;;;33.97;14.97;;;16.30;99.90;;;;;;5092919;28;20223;-75
2021/07/17 04:54:00;;;;;;;37.47;15.37;;;16.30;99.90;;;;;;5092449;28;20573;-76
2021/07/17 04:56:27;;;;;;;34.93;15.23;;;16.40;99.90;;;;;;5093040;28;20199;-75
2021/07/17 04:58:54;;;;;;;33.23;15.10;;;16.50;99.90;;;;;;5092500;28;20289;-75
2021/07/17 05:01:21;;;;;;;31.30;15.37;;;16.60;99.90;;;;;;5092809;28;20578;-75
2021/07/17 05:03:48;;;;;;;36.03;16.20;;;16.70;99.90;;;;;;5092450;28;20749;-76
2021/07/17 05:06:16;;;;;;;35.73;16.60;;;16.90;99.90;;;;;;5092821;28;20209;-75
2021/07/17 05:08:43;;;;;;;32.70;14.97;;;16.60;99.90;;;;;;5092729;28;20228;-74
2021/07/17 05:11:10;;;;;;;39.37;15.00;;;16.50;99.90;;;;;;5093082;28;20309;-74
2021/07/17 05:13:36;;;;;;;37.83;15.67;;;16.60;99.90;;;;;;5092483;28;20194;-74
2021/07/17 05:16:04;;;;;;;33.77;15.40;;;16.60;99.90;;;;;;5092801;28;20289;-74
2021/07/17 05:18:32;;;;;;;38.30;15.67;;;16.70;99.90;;;;;;5092884;28;20206;-75
2021/07/17 05:20:59;;;;;;;30.63;15.03;;;16.70;99.90;;;;;;5092919;28;20203;-75
2021/07/17 05:23:27;;;;;;;36.90;14.80;;;16.70;99.90;;;;;;5094450;28;20218;-75
2021/07/17 05:25:54;;;;;;;36.27;15.30;;;16.80;99.90;;;;;;5097144;28;20199;-75
2021/07/17 05:28:22;;;;;;;30.07;14.50;;;16.70;99.90;;;;;;5096346;28;20202;-75
2021/07/17 05:30:49;;;;;;;34.87;14.60;;;16.90;99.90;;;;;;5096582;28;20230;-75
2021/07/17 05:33:16;;;;;;;26.20;12.97;;;17.00;99.90;;;;;;5096307;28;20211;-76
2021/07/17 05:35:43;;;;;;;36.07;15.43;;;17.20;99.90;;;;;;5097136;28;20558;-76
2021/07/17 05:38:10;;;;;;;40.90;13.63;;;17.40;99.90;;;;;;5096199;28;20659;-76
2021/07/17 05:40:38;;;;;;;33.60;14.63;;;17.70;99.90;;;;;;5096804;28;20201;-75
2021/07/17 05:43:06;;;;;;;31.90;14.17;;;17.80;99.90;;;;;;5096453;28;20203;-75
2021/07/17 05:45:35;;;;;;;33.60;13.60;;;18.00;99.90;;;;;;5096182;28;20207;-75
2021/07/17 05:48:02;;;;;;;37.27;14.03;;;18.20;99.90;;;;;;5096269;28;20202;-75
2021/07/17 05:50:29;;;;;;;27.93;13.43;;;18.30;99.90;;;;;;5096049;28;20230;-76
2021/07/17 05:52:56;;;;;;;25.93;12.63;;;18.30;99.90;;;;;;5096667;28;20203;-75
2021/07/17 05:55:22;;;;;;;28.67;13.10;;;18.30;99.90;;;;;;5096380;28;20206;-75
2021/07/17 05:57:51;;;;;;;23.70;12.07;;;18.40;99.90;;;;;;5095804;28;20209;-76
2021/07/17 06:00:20;;;;;;;30.30;12.77;;;18.70;99.90;;;;;;5092757;28;20231;-76
2021/07/17 06:02:47;;;;;;;31.00;12.63;;;18.70;99.90;;;;;;5095545;28;20232;-76
2021/07/17 06:05:14;;;;;;;24.60;12.13;;;18.80;99.90;;;;;;5096169;28;20209;-76
2021/07/17 06:07:41;;;;;;;28.43;12.67;;;18.70;99.90;;;;;;5094169;28;20313;-76
2021/07/17 06:10:09;;;;;;;32.03;13.13;;;18.30;99.90;;;;;;5096141;28;20218;-75
2021/07/17 06:12:36;;;;;;;29.77;11.77;;;18.20;99.90;;;;;;5095282;28;20230;-76
2021/07/17 06:15:06;;;;;;;25.17;12.50;;;18.40;99.90;;;;;;5095525;28;20203;-75
2021/07/17 06:17:32;;;;;;;26.67;12.03;;;18.70;99.90;;;;;;5095767;28;20206;-76
2021/07/17 06:19:59;;;;;;;23.10;10.77;;;18.70;99.90;;;;;;5095269;28;20207;-75
2021/07/17 06:22:26;;;;;;;28.37;12.03;;;18.90;99.90;;;;;;5095358;28;20202;-76
2021/07/17 06:24:53;;;;;;;23.77;11.23;;;18.90;99.90;;;;;;5090478;28;20202;-75
2021/07/17 06:27:20;;;;;;;23.80;11.30;;;18.90;99.90;;;;;;5094548;28;20207;-75
2021/07/17 06:29:47;;;;;;;31.00;12.37;;;19.00;99.90;;;;;;5093978;28;20206;-75
2021/07/17 06:32:18;;;;;;;22.43;10.67;;;19.40;99.90;;;;;;5094814;28;20282;-75
2021/07/17 06:34:45;;;;;;;27.70;11.53;;;19.70;99.90;;;;;;5093739;28;20307;-76
2021/07/17 06:37:12;;;;;;;30.50;10.80;;;20.10;99.90;;;;;;5094999;28;20294;-75
2021/07/17 06:39:39;;;;;;;21.63;9.50;;;21.00;99.90;;;;;;5085397;28;20299;-76
2021/07/17 06:42:06;;;;;;;23.15;9.30;;;21.10;99.90;;;;;;5090400;28;20551;-76
2021/07/17 06:44:33;;;;;;;23.03;10.30;;;20.80;99.90;;;;;;5094914;28;20198;-75
2021/07/17 06:47:02;;;;;;;25.13;9.30;;;20.80;99.90;;;;;;5094790;28;20573;-75
2021/07/17 06:49:31;;;;;;;22.75;9.38;;;21.00;99.90;;;;;;5095509;28;20205;-76
2021/07/17 06:51:58;;;;;;;22.20;9.53;;;20.90;99.90;;;;;;5087533;28;20219;-75
2021/07/17 06:54:24;;;;;;;20.53;9.03;;;20.80;99.90;;;;;;5094445;28;20245;-75
2021/07/17 06:56:51;;;;;;;22.67;8.63;;;20.40;99.90;;;;;;5092863;28;20667;-75
2021/07/17 06:59:18;;;;;;;25.23;9.97;;;19.70;99.90;;;;;;5094759;28;20217;-76
2021/07/17 07:01:45;;;;;;;23.73;9.50;;;20.20;99.90;;;;;;5094668;28;20199;-75
2021/07/17 07:04:12;;;;;;;23.00;9.93;;;20.20;99.90;;;;;;5094276;28;20278;-76
2021/07/17 07:06:41;;;;;;;24.77;9.53;;;20.00;99.90;;;;;;5094909;28;20202;-76
2021/07/17 07:09:07;;;;;;;18.37;8.90;;;19.70;99.90;;;;;;5094470;28;20222;-76
2021/07/17 07:11:39;;;;;;;23.93;9.10;;;20.40;99.90;;;;;;5094249;28;20310;-75
2021/07/17 07:14:06;;;;;;;22.85;8.10;;;21.60;99.90;;;;;;5094863;28;20252;-76
2021/07/17 07:16:32;;;;;;;18.98;8.38;;;22.80;99.90;;;;;;5094421;28;20567;-75
2021/07/17 07:18:59;;;;;;;20.40;8.38;;;23.90;99.90;;;;;;5094244;28;20209;-75
2021/07/17 07:21:26;;;;;;;19.15;8.32;;;23.20;99.90;;;;;;5094113;28;20731;-76
2021/07/17 07:23:54;;;;;;;22.50;8.02;;;22.90;99.90;;;;;;5094186;28;20290;-75
2021/07/17 07:26:21;;;;;;;24.05;9.15;;;22.60;99.90;;;;;;5094458;28;20577;-76
2021/07/17 07:28:48;;;;;;;21.08;8.70;;;21.70;99.90;;;;;;5094076;28;20725;-76
2021/07/17 07:31:15;;;;;;;27.38;9.55;;;20.50;99.90;;;;;;5094178;28;20227;-76
2021/07/17 07:33:42;;;;;;;18.02;9.18;;;20.50;99.90;;;;;;5094110;28;20213;-76
2021/07/17 07:36:09;;;;;;;20.77;8.85;;;21.90;99.90;;;;;;5094406;28;20289;-75
2021/07/17 07:38:36;;;;;;;16.95;8.35;;;23.00;99.90;;;;;;5094070;28;20552;-76
2021/07/17 07:41:04;;;;;;;17.67;8.75;;;24.10;99.90;;;;;;5094017;28;20199;-76
2021/07/17 07:43:30;;;;;;;16.30;8.35;;;25.20;99.90;;;;;;5086865;28;20203;-76
2021/07/17 07:45:57;;;;;;;20.77;7.72;;;25.90;99.90;;;;;;5092193;28;20205;-76
2021/07/17 07:48:24;;;;;;;28.95;8.23;;;26.00;99.90;;;;;;5093860;28;20199;-75
2021/07/17 07:50:51;;;;;;;16.83;7.30;;;25.50;99.90;;;;;;5093340;28;20226;-75
2021/07/17 07:53:18;;;;;;;20.63;8.35;;;23.90;99.90;;;;;;5093927;28;20211;-76
2021/07/17 07:55:45;;;;;;;20.45;8.23;;;22.60;99.90;;;;;;5093428;28;20209;-75
2021/07/17 07:58:13;;;;;;;19.42;9.05;;;21.30;99.90;;;;;;5101051;28;20285;-76
2021/07/17 08:00:40;;;;;;;18.40;8.23;;;21.00;99.90;;;;;;5093751;28;20205;-75
2021/07/17 08:03:07;;;;;;;20.45;8.40;;;21.10;99.90;;;;;;5091903;28;20195;-75
2021/07/17 08:05:34;;;;;;;18.58;8.05;;;21.70;99.90;;;;;;5089494;28;20207;-75
2021/07/17 08:08:01;;;;;;;20.30;7.55;;;23.20;99.90;;;;;;5079533;28;20565;-76
2021/07/17 08:10:28;;;;;;;13.18;7.03;;;24.50;99.90;;;;;;5090023;28;20195;-76
2021/07/17 08:12:55;;;;;;;17.17;6.75;;;26.60;99.90;;;;;;5093118;28;20290;-75
2021/07/17 08:15:23;;;;;;;16.63;7.05;;;27.70;99.90;;;;;;5093342;28;20210;-75
2021/07/17 08:17:50;;;;;;;19.58;7.20;;;28.80;99.90;;;;;;5092226;28;20209;-76
2021/07/17 08:20:17;;;;;;;17.75;7.35;;;27.70;99.90;;;;;;5092675;28;20209;-76
2021/07/17 08:22:44;;;;;;;18.75;7.22;;;27.40;99.90;;;;;;5091794;28;20282;-76
2021/07/17 08:25:12;;;;;;;18.95;7.15;;;27.60;99.90;;;;;;5092951;28;20619;-74
2021/07/17 08:27:39;;;;;;;19.00;7.03;;;28.00;99.90;;;;;;5092828;28;20213;-73
2021/07/17 08:30:09;;;;;;;15.55;7.03;;;27.50;99.90;;;;;;5092605;28;20198;-74
2021/07/17 08:32:37;;;;;;;15.25;6.60;;;28.40;99.90;;;;;;5090628;28;20226;-73
2021/07/17 08:35:04;;;;;;;14.98;5.90;;;30.30;99.90;;;;;;5092900;28;20203;-73
2021/07/17 08:37:34;;;;;;;14.55;6.75;;;29.40;99.90;;;;;;5092989;28;20207;-76
2021/07/17 08:40:01;;;;;;;12.70;6.07;;;28.60;99.90;;;;;;5092914;28;20271;-76
2021/07/17 08:42:30;;;;;;;16.45;6.18;;;28.00;99.90;;;;;;5092095;28;20648;-75
2021/07/17 08:45:00;;;;;;;17.67;6.47;;;27.90;99.90;;;;;;5095486;28;20665;-78
2021/07/17 08:47:30;;;;;;;19.48;7.43;;;26.40;99.90;;;;;;5093036;28;20198;-78
2021/07/17 08:50:00;;;;;;;17.27;6.38;;;26.90;99.90;;;;;;5092597;28;20203;-78
2021/07/17 08:52:29;;;;;;;13.95;6.35;;;27.90;99.90;;;;;;5092203;28;20210;-75
2021/07/17 08:55:03;;;;;;;15.80;5.97;;;29.30;99.90;;;;;;5081186;28;20203;-76
2021/07/17 08:57:34;;;;;;;15.43;6.72;;;30.40;99.90;;;;;;5080745;28;20594;-75
2021/07/17 09:00:02;;;;;;;16.00;6.72;;;29.80;99.90;;;;;;5094592;28;20222;-76
2021/07/17 09:02:29;;;;;;;16.63;6.28;;;29.60;99.90;;;;;;5092061;28;20205;-75
2021/07/17 09:04:56;;;;;;;13.80;6.05;;;29.90;99.90;;;;;;5092545;28;20635;-76
2021/07/17 09:07:24;;;;;;;14.65;6.47;;;30.00;99.90;;;;;;5088900;28;20636;-78
2021/07/17 09:09:52;;;;;;;11.95;6.30;;;29.00;99.90;;;;;;5079493;28;20222;-75
2021/07/17 09:12:24;;;;;;;13.18;6.10;;;28.50;99.90;;;;;;5098403;28;20562;-76
2021/07/17 09:14:52;;;;;;;12.88;5.65;;;28.60;99.90;;;;;;5092259;28;20294;-75
2021/07/17 09:17:28;;;;;;;12.23;5.63;;;29.20;99.90;;;;;;5093470;28;20297;-75
2021/07/17 09:19:57;;;;;;;13.98;5.72;;;29.80;99.90;;;;;;5092625;28;20202;-76
2021/07/17 09:22:47;;;;;;;14.60;6.32;;;30.00;99.90;;;;;;5091415;28;20191;-77
2021/07/17 09:25:17;;;;;;;8.95;5.00;;;30.50;99.90;;;;;;5089764;28;20199;-76
2021/07/17 09:27:45;;;;;;;12.77;5.22;;;30.00;99.90;;;;;;5092808;28;20217;-76
2021/07/17 09:30:33;;;;;;;12.00;5.97;;;28.40;99.90;;;;;;5091762;28;20284;-78
2021/07/17 09:33:02;;;;;;;17.40;5.65;;;28.20;99.90;;;;;;5091369;28;20642;-77
2021/07/17 09:35:29;;;;;;;13.18;6.03;;;28.00;99.90;;;;;;5091533;28;20195;-77
2021/07/17 09:38:02;;;;;;;10.73;5.00;;;28.70;99.90;;;;;;5091817;28;20203;-77
2021/07/17 09:40:43;;;;;;;12.15;5.32;;;29.60;99.90;;;;;;5093663;28;20199;-76
2021/07/17 09:43:10;;;;;;;10.70;4.97;;;30.40;99.90;;;;;;5088681;28;20236;-77
2021/07/17 09:45:38;;;;;;;11.05;5.43;;;29.50;99.90;;;;;;5091179;28;20202;-78
2021/07/17 09:48:23;;;;;;;13.63;5.32;;;30.00;99.90;;;;;;5091441;28;20202;-77
2021/07/17 09:50:51;;;;;;;14.10;5.00;;;30.00;99.90;;;;;;5091354;28;20203;-76
2021/07/17 09:53:38;;;;;;;12.77;5.38;;;30.10;99.90;;;;;;5091225;28;20222;-78
2021/07/17 09:56:06;;;;;;;11.50;5.03;;;28.80;99.90;;;;;;5084453;28;20203;-77
2021/07/17 09:58:33;;;;;;;12.98;5.40;;;28.50;99.90;;;;;;5085247;28;20202;-78
2021/07/17 10:01:16;;;;;;;10.30;4.70;;;29.60;99.90;;;;;;5088336;28;20199;-78
2021/07/17 10:03:43;;;;;;;8.38;4.40;;;30.50;99.90;;;;;;5075892;28;20204;-78
2021/07/17 10:06:11;;;;;;;9.88;4.60;;;29.70;99.90;;;;;;5087955;28;20198;-77
2021/07/17 10:08:39;;;;;;;12.68;4.50;;;29.00;99.90;;;;;;5084293;28;20538;-77
2021/07/17 10:11:12;;;;;;;11.98;4.65;;;29.10;99.90;;;;;;5092872;28;20202;-77
2021/07/17 10:13:40;;;;;;;16.70;4.90;;;28.50;99.90;;;;;;5090478;28;20664;-78
2021/07/17 10:16:17;;;;;;;14.18;4.70;;;28.20;99.90;;;;;;5085278;28;20201;-77
2021/07/17 10:18:44;;;;;;;7.95;3.75;;;28.50;99.90;;;;;;5091017;28;20211;-78
2021/07/17 10:21:12;;;;;;;11.80;3.97;;;28.70;99.90;;;;;;5092740;28;20208;-75
2021/07/17 10:23:40;;;;;;;6.80;3.65;;;28.70;99.90;;;;;;5093983;28;20202;-75
2021/07/17 10:26:08;;;;;;;12.10;4.72;;;28.30;99.90;;;;;;5093255;28;20206;-77
2021/07/17 10:28:35;;;;;;;15.52;4.28;;;28.90;99.90;;;;;;5093684;28;20217;-75
2021/07/17 10:31:03;;;;;;;9.68;3.92;;;28.50;99.90;;;;;;5094168;28;20660;-76
2021/07/17 10:33:31;;;;;;;11.00;4.57;;;29.60;99.90;;;;;;5090083;28;20226;-77
2021/07/17 10:36:00;;;;;;;12.98;4.30;;;30.20;99.90;;;;;;5079234;28;20207;-76
2021/07/17 10:38:30;;;;;;;10.75;4.22;;;29.80;99.90;;;;;;5089295;28;20226;-77
2021/07/17 10:41:00;;;;;;;10.23;4.70;;;31.20;99.90;;;;;;5102613;28;20214;-76
2021/07/17 10:43:28;;;;;;;12.15;3.88;;;30.00;99.90;;;;;;5091116;28;20199;-76
2021/07/17 10:45:55;;;;;;;10.32;3.92;;;30.50;99.90;;;;;;5088821;28;20199;-72
2021/07/17 10:48:25;;;;;;;6.30;3.67;;;29.30;99.90;;;;;;5090972;28;20217;-74
2021/07/17 10:50:52;;;;;;;7.82;3.83;;;29.20;99.90;;;;;;5089456;28;20198;-81
2021/07/17 10:53:41;;;;;;;7.97;3.08;;;29.90;99.90;;;;;;5094355;28;20705;-77
2021/07/17 10:56:39;;;;;;;7.43;3.78;;;29.30;99.90;;;;;;5092601;28;20195;-78
2021/07/17 10:59:23;;;;;;;8.50;3.88;;;28.00;99.90;;;;;;5090566;28;20298;-79
2021/07/17 11:02:05;;;;;;;9.27;3.60;;;28.20;99.90;;;;;;5090325;28;20187;-78
2021/07/17 11:04:40;;;;;;;9.90;4.15;;;28.50;99.90;;;;;;5092568;28;20244;-77
2021/07/17 11:07:44;;;;;;;7.78;3.50;;;29.10;99.90;;;;;;5085893;28;20206;-78
2021/07/17 11:10:21;;;;;;;6.50;3.65;;;29.70;99.90;;;;;;5085567;28;20530;-77
2021/07/17 11:12:56;;;;;;;8.65;3.75;;;29.60;99.90;;;;;;5093723;28;20293;-77
2021/07/17 11:15:51;;;;;;;7.47;3.15;;;29.20;99.90;;;;;;5092589;28;20213;-78
2021/07/17 11:18:22;;;;;;;6.70;3.35;;;29.00;99.90;;;;;;5092743;28;20298;-76
2021/07/17 11:20:49;;;;;;;7.00;3.38;;;28.20;99.90;;;;;;5091916;28;20244;-78
2021/07/17 11:23:19;;;;;;;8.48;3.20;;;28.70;99.90;;;;;;5093317;28;20714;-77
2021/07/17 11:25:55;;;;;;;7.03;3.28;;;29.10;99.90;;;;;;5092402;28;20226;-77
2021/07/17 11:29:02;;;;;;;6.20;2.88;;;28.60;99.90;;;;;;5093369;28;20206;-77
2021/07/17 11:31:45;;;;;;;5.95;3.40;;;28.20;99.90;;;;;;5092891;28;20241;-77
2021/07/17 11:34:38;;;;;;;6.25;3.20;;;28.60;99.90;;;;;;5092245;28;20722;-76
2021/07/17 11:37:08;;;;;;;6.10;3.03;;;29.30;99.90;;;;;;5093894;28;20207;-78
2021/07/17 11:39:37;;;;;;;8.20;3.65;;;29.30;99.90;;;;;;5093178;28;20639;-77
2021/07/17 11:42:07;;;;;;;6.50;3.03;;;28.50;99.90;;;;;;5093345;28;20203;-76
2021/07/17 11:44:36;;;;;;;9.70;3.33;;;29.30;99.90;;;;;;5093174;28;20606;-76
2021/07/17 11:47:05;;;;;;;6.18;3.08;;;29.50;99.90;;;;;;5093882;28;20199;-77
2021/07/17 11:49:35;;;;;;;7.82;3.42;;;29.20;99.90;;;;;;5087317;28;20203;-77
2021/07/17 11:52:04;;;;;;;12.05;3.33;;;28.70;99.90;;;;;;5094056;28;20313;-77
2021/07/17 11:54:33;;;;;;;4.97;3.05;;;28.90;99.90;;;;;;5092655;28;20213;-77
2021/07/17 11:57:05;;;;;;;7.15;3.40;;;28.20;99.90;;;;;;5093090;28;20567;-78
2021/07/17 11:59:33;;;;;;;8.70;3.50;;;29.10;99.90;;;;;;5093059;28;20202;-76
2021/07/17 12:02:03;;;;;;;6.28;3.17;;;27.90;99.90;;;;;;5093381;28;20233;-76
2021/07/17 12:04:32;;;;;;;5.07;2.63;;;27.80;99.90;;;;;;5092875;28;20199;-77
2021/07/17 12:07:05;;;;;;;6.65;2.83;;;28.00;99.90;;;;;;5092957;28;20281;-77
2021/07/17 12:09:36;;;;;;;6.28;2.90;;;29.10;99.90;;;;;;5092642;28;20207;-77
2021/07/17 12:12:27;;;;;;;8.05;3.10;;;29.30;99.90;;;;;;5093192;28;20233;-77
2021/07/17 12:15:04;;;;;;;8.77;2.80;;;28.80;99.90;;;;;;5092110;28;20253;-76
2021/07/17 12:17:32;;;;;;;6.63;3.03;;;29.00;99.90;;;;;;5093177;28;20686;-78
2021/07/17 12:20:03;;;;;;;4.60;2.70;;;29.40;99.90;;;;;;5093015;28;20290;-77
2021/07/17 12:22:31;;;;;;;5.88;2.70;;;30.10;99.90;;;;;;5093121;28;20620;-77
2021/07/17 12:25:07;;;;;;;6.47;3.08;;;29.90;99.90;;;;;;5091904;28;20289;-77
2021/07/17 12:27:56;;;;;;;7.50;3.10;;;29.70;99.90;;;;;;5092493;28;20209;-77
2021/07/17 12:30:24;;;;;;;7.43;3.30;;;28.90;99.90;;;;;;5089451;28;20287;-78
2021/07/17 12:32:51;;;;;;;5.53;2.85;;;29.10;99.90;;;;;;5088950;28;20225;-78
2021/07/17 12:35:26;;;;;;;7.80;2.95;;;29.80;99.90;;;;;;5092595;28;20316;-78
2021/07/17 12:37:53;;;;;;;4.03;2.67;;;29.90;99.90;;;;;;5092843;28;20197;-78
2021/07/17 12:40:20;;;;;;;5.82;2.85;;;29.20;99.90;;;;;;5093361;28;20205;-78
2021/07/17 12:42:48;;;;;;;6.80;3.30;;;29.20;99.90;;;;;;5089840;28;20286;-78